createdAt,value
2019-02-15T00:02:23.383Z,-1.30
2019-02-15T00:04:52.430Z,-1.20
2019-02-15T00:07:21.299Z,-1.10
2019-02-15T00:09:50.345Z,-1.10
2019-02-15T00:12:19.153Z,-1.10
2019-02-15T00:14:49.017Z,-1.10
2019-02-15T00:17:36.107Z,-1.10
2019-02-15T00:20:08.372Z,-1.10
2019-02-15T00:22:37.911Z,-1.20
2019-02-15T00:25:06.789Z,-1.20
2019-02-15T00:27:35.841Z,-1.30
2019-02-15T00:30:07.085Z,-1.30
2019-02-15T00:32:35.869Z,-1.40
2019-02-15T00:35:05.014Z,-1.40
2019-02-15T00:37:34.060Z,-1.50
2019-02-15T00:40:02.956Z,-1.40
2019-02-15T00:42:32.026Z,-1.40
2019-02-15T00:45:01.080Z,-1.40
2019-02-15T00:47:46.146Z,-1.50
2019-02-15T00:50:33.357Z,-1.50
2019-02-15T00:53:19.833Z,-1.50
2019-02-15T00:56:09.431Z,-1.50
2019-02-15T00:58:56.810Z,-1.60
2019-02-15T01:01:33.985Z,-1.60
2019-02-15T01:04:14.543Z,-1.70
2019-02-15T01:07:05.779Z,-1.70
2019-02-15T01:09:48.283Z,-1.80
2019-02-15T01:12:20.865Z,-1.80
2019-02-15T01:14:49.997Z,-1.80
2019-02-15T01:17:18.869Z,-1.80
2019-02-15T01:19:47.662Z,-1.80
2019-02-15T01:22:16.569Z,-1.80
2019-02-15T01:24:45.584Z,-1.90
2019-02-15T01:27:26.750Z,-1.90
2019-02-15T01:30:13.577Z,-1.90
2019-02-15T01:32:50.333Z,-2.00
2019-02-15T01:35:41.174Z,-2.00
2019-02-15T01:38:24.613Z,-2.00
2019-02-15T01:40:57.988Z,-2.10
2019-02-15T01:43:52.195Z,-2.10
2019-02-15T01:46:28.577Z,-2.10
2019-02-15T01:48:57.373Z,-2.10
2019-02-15T01:51:26.317Z,-2.10
2019-02-15T01:53:55.109Z,-2.10
2019-02-15T01:56:23.893Z,-2.10
2019-02-15T01:58:53.030Z,-2.10
2019-02-15T02:01:25.120Z,-2.20
2019-02-15T02:03:53.925Z,-2.20
2019-02-15T02:06:22.733Z,-2.20
2019-02-15T02:08:51.685Z,-2.30
2019-02-15T02:11:20.476Z,-2.30
2019-02-15T02:13:50.080Z,-2.40
2019-02-15T02:16:19.077Z,-2.40
2019-02-15T02:18:47.885Z,-2.40
2019-02-15T02:21:16.687Z,-2.30
2019-02-15T02:23:45.846Z,-2.30
2019-02-15T02:26:14.923Z,-2.30
2019-02-15T02:28:44.080Z,-2.30
2019-02-15T02:31:13.021Z,-2.40
2019-02-15T02:33:41.868Z,-2.40
2019-02-15T02:36:10.895Z,-2.50
2019-02-15T02:38:39.702Z,-2.50
2019-02-15T02:41:09.081Z,-2.50
2019-02-15T02:43:37.959Z,-2.50
2019-02-15T02:46:06.817Z,-2.50
2019-02-15T02:48:35.958Z,-2.60
2019-02-15T02:51:04.809Z,-2.60
2019-02-15T02:53:33.613Z,-2.60
2019-02-15T02:56:02.729Z,-2.60
2019-02-15T02:58:31.839Z,-2.50
2019-02-15T03:01:00.629Z,-2.50
2019-02-15T03:03:29.697Z,-2.50
2019-02-15T03:05:58.486Z,-2.50
2019-02-15T03:08:27.283Z,-2.50
2019-02-15T03:10:56.072Z,-2.60
2019-02-15T03:13:24.883Z,-2.60
2019-02-15T03:15:54.357Z,-2.60
2019-02-15T03:18:23.162Z,-2.60
2019-02-15T03:20:52.343Z,-2.70
2019-02-15T03:23:21.139Z,-2.70
2019-02-15T03:25:49.926Z,-2.70
2019-02-15T03:28:19.330Z,-2.70
2019-02-15T03:30:48.153Z,-2.80
2019-02-15T03:33:17.269Z,-2.80
2019-02-15T03:35:57.729Z,-2.80
2019-02-15T03:38:33.622Z,-2.80
2019-02-15T03:41:04.443Z,-2.80
2019-02-15T03:43:33.241Z,-2.90
2019-02-15T03:46:02.919Z,-2.90
2019-02-15T03:48:31.806Z,-2.90
2019-02-15T03:51:01.146Z,-2.90
2019-02-15T03:53:30.558Z,-3.00
2019-02-15T03:55:59.689Z,-3.00
2019-02-15T03:58:28.484Z,-3.00
2019-02-15T04:00:57.452Z,-3.00
2019-02-15T04:03:26.381Z,-3.00
2019-02-15T04:05:55.162Z,-3.00
2019-02-15T04:08:23.973Z,-3.00
2019-02-15T04:10:53.106Z,-3.00
2019-02-15T04:13:21.905Z,-3.00
2019-02-15T04:15:50.978Z,-3.00
2019-02-15T04:18:19.834Z,-3.00
2019-02-15T04:20:48.632Z,-3.00
2019-02-15T04:23:17.445Z,-3.00
2019-02-15T04:25:46.314Z,-3.10
2019-02-15T04:28:15.108Z,-3.10
2019-02-15T04:30:43.900Z,-3.20
2019-02-15T04:33:13.005Z,-3.10
2019-02-15T04:35:41.815Z,-3.20
2019-02-15T04:38:10.598Z,-3.20
2019-02-15T04:40:39.679Z,-3.20
2019-02-15T04:43:08.481Z,-3.20
2019-02-15T04:45:37.281Z,-3.20
2019-02-15T04:48:06.098Z,-3.10
2019-02-15T04:50:35.188Z,-3.10
2019-02-15T04:53:04.051Z,-3.10
2019-02-15T04:55:32.848Z,-3.20
2019-02-15T04:58:01.632Z,-3.20
2019-02-15T05:00:30.437Z,-3.30
2019-02-15T05:02:59.229Z,-3.30
2019-02-15T05:05:28.032Z,-3.30
2019-02-15T05:07:56.909Z,-3.40
2019-02-15T05:10:25.706Z,-3.40
2019-02-15T05:12:54.509Z,-3.40
2019-02-15T05:15:23.410Z,-3.40
2019-02-15T05:17:52.240Z,-3.40
2019-02-15T05:20:21.038Z,-3.30
2019-02-15T05:22:49.820Z,-3.30
2019-02-15T05:25:18.764Z,-3.30
2019-02-15T05:27:47.549Z,-3.40
2019-02-15T05:30:16.454Z,-3.40
2019-02-15T05:32:45.287Z,-3.40
2019-02-15T05:35:14.162Z,-3.40
2019-02-15T05:37:42.965Z,-3.40
2019-02-15T05:40:11.762Z,-3.50
2019-02-15T05:42:40.556Z,-3.50
2019-02-15T05:45:09.448Z,-3.50
2019-02-15T05:47:38.250Z,-3.50
2019-02-15T05:50:07.140Z,-3.60
2019-02-15T05:52:35.958Z,-3.50
2019-02-15T05:55:05.102Z,-3.50
2019-02-15T05:57:34.145Z,-3.60
2019-02-15T06:00:03.479Z,-3.60
2019-02-15T06:02:32.280Z,-3.60
2019-02-15T06:05:01.061Z,-3.60
2019-02-15T06:07:30.117Z,-3.60
2019-02-15T06:09:59.165Z,-3.60
2019-02-15T06:12:28.553Z,-3.60
2019-02-15T06:14:57.598Z,-3.60
2019-02-15T06:17:26.396Z,-3.60
2019-02-15T06:19:55.433Z,-3.60
2019-02-15T06:22:24.229Z,-3.60
2019-02-15T06:24:53.014Z,-3.60
2019-02-15T06:27:21.842Z,-3.60
2019-02-15T06:29:50.953Z,-3.60
2019-02-15T06:32:20.043Z,-3.70
2019-02-15T06:34:48.842Z,-3.70
2019-02-15T06:37:17.708Z,-3.70
2019-02-15T06:39:46.488Z,-3.60
2019-02-15T06:42:15.592Z,-3.60
2019-02-15T06:44:44.389Z,-3.60
2019-02-15T06:47:13.797Z,-3.60
2019-02-15T06:49:42.597Z,-3.70
2019-02-15T06:52:11.727Z,-3.60
2019-02-15T06:54:40.510Z,-3.60
2019-02-15T06:57:09.300Z,-3.60
2019-02-15T06:59:52.476Z,-3.60
2019-02-15T07:02:27.589Z,-3.50
2019-02-15T07:05:15.681Z,-3.50
2019-02-15T07:07:44.549Z,-3.50
2019-02-15T07:10:13.646Z,-3.40
2019-02-15T07:12:42.843Z,-3.30
2019-02-15T07:15:11.708Z,-3.30
2019-02-15T07:17:40.722Z,-3.30
2019-02-15T07:20:09.950Z,-3.20
2019-02-15T07:22:38.762Z,-3.20
2019-02-15T07:25:08.914Z,-3.10
2019-02-15T07:27:37.724Z,-3.10
2019-02-15T07:30:07.883Z,-3.00
2019-02-15T07:32:36.792Z,-2.90
2019-02-15T07:35:06.169Z,-2.80
2019-02-15T07:37:34.959Z,-2.80
2019-02-15T07:40:04.292Z,-2.70
2019-02-15T07:42:33.733Z,-2.60
2019-02-15T07:45:02.912Z,-2.50
2019-02-15T07:47:31.721Z,-2.40
2019-02-15T07:50:01.385Z,-2.30
2019-02-15T07:52:30.534Z,-2.20
2019-02-15T07:54:59.321Z,-2.10
2019-02-15T07:57:28.113Z,-2.00
2019-02-15T07:59:56.902Z,-1.90
2019-02-15T08:02:25.781Z,-1.70
2019-02-15T08:04:54.806Z,-1.60
2019-02-15T08:07:23.625Z,-1.40
2019-02-15T08:09:52.419Z,-1.30
2019-02-15T08:12:21.577Z,-1.10
2019-02-15T08:14:50.369Z,-0.90
2019-02-15T08:17:19.428Z,-0.70
2019-02-15T08:19:48.545Z,-0.60
2019-02-15T08:22:17.343Z,-0.40
2019-02-15T08:24:46.374Z,-0.30
2019-02-15T08:27:15.233Z,-0.10
2019-02-15T08:29:44.113Z,0.00
2019-02-15T08:32:13.199Z,0.10
2019-02-15T08:35:01.476Z,0.10
2019-02-15T08:37:30.646Z,0.20
2019-02-15T08:39:59.692Z,0.30
2019-02-15T08:42:28.799Z,0.40
2019-02-15T08:44:59.348Z,0.60
2019-02-15T08:47:28.428Z,0.80
2019-02-15T08:49:57.479Z,0.70
2019-02-15T08:52:26.269Z,0.80
2019-02-15T08:54:55.081Z,1.00
2019-02-15T08:57:23.877Z,1.20
2019-02-15T08:59:52.678Z,1.40
2019-02-15T09:02:22.990Z,1.60
2019-02-15T09:04:52.110Z,1.80
2019-02-15T09:07:21.168Z,2.00
2019-02-15T09:09:49.961Z,2.20
2019-02-15T09:12:19.187Z,2.50
2019-02-15T09:14:48.063Z,3.10
2019-02-15T09:17:16.873Z,5.70
2019-02-15T09:19:45.914Z,8.60
2019-02-15T09:22:14.776Z,10.70
2019-02-15T09:24:43.921Z,12.80
2019-02-15T09:27:34.774Z,13.40
2019-02-15T09:30:04.869Z,14.20
2019-02-15T09:32:33.652Z,14.30
2019-02-15T09:35:02.748Z,14.40
2019-02-15T09:37:31.537Z,14.20
2019-02-15T09:40:00.344Z,14.20
2019-02-15T09:42:29.373Z,14.60
2019-02-15T09:44:58.433Z,15.00
2019-02-15T09:47:27.234Z,15.30
2019-02-15T09:49:56.117Z,15.90
2019-02-15T09:52:24.929Z,17.00
2019-02-15T09:54:53.728Z,16.50
2019-02-15T09:57:22.537Z,15.50
2019-02-15T09:59:51.985Z,16.50
2019-02-15T10:02:20.807Z,16.10
2019-02-15T10:04:49.958Z,16.20
2019-02-15T10:07:18.783Z,16.00
2019-02-15T10:09:47.946Z,16.30
2019-02-15T10:12:16.989Z,16.30
2019-02-15T10:14:46.273Z,16.20
2019-02-15T10:17:15.969Z,16.50
2019-02-15T10:19:45.022Z,16.50
2019-02-15T10:22:13.821Z,16.80
2019-02-15T10:24:42.622Z,16.10
2019-02-15T10:27:12.025Z,16.30
2019-02-15T10:29:41.243Z,17.00
2019-02-15T10:32:10.117Z,16.90
2019-02-15T10:34:39.172Z,15.70
2019-02-15T10:37:07.964Z,17.00
2019-02-15T10:39:37.281Z,17.30
2019-02-15T10:42:06.161Z,17.60
2019-02-15T10:44:34.984Z,17.70
2019-02-15T10:47:03.841Z,15.10
2019-02-15T10:49:32.705Z,14.10
2019-02-15T10:52:01.493Z,13.00
2019-02-15T10:54:30.620Z,12.00
2019-02-15T10:56:59.684Z,11.30
2019-02-15T10:59:28.470Z,10.60
2019-02-15T11:01:58.908Z,10.30
2019-02-15T11:04:27.781Z,10.10
2019-02-15T11:06:56.669Z,9.70
2019-02-15T11:09:25.465Z,9.60
2019-02-15T11:11:54.629Z,9.60
2019-02-15T11:14:23.532Z,9.50
2019-02-15T11:16:52.345Z,10.10
2019-02-15T11:19:21.206Z,9.50
2019-02-15T11:21:50.314Z,9.60
2019-02-15T11:24:19.349Z,9.50
2019-02-15T11:26:48.187Z,9.70
2019-02-15T11:29:17.212Z,9.80
2019-02-15T11:31:46.253Z,9.90
2019-02-15T11:34:15.292Z,9.70
2019-02-15T11:36:44.112Z,9.80
2019-02-15T11:39:12.980Z,9.90
2019-02-15T11:41:42.313Z,10.10
2019-02-15T11:44:11.173Z,10.00
2019-02-15T11:46:40.125Z,9.70
2019-02-15T11:49:08.929Z,9.80
2019-02-15T11:51:37.760Z,10.00
2019-02-15T11:54:06.553Z,10.20
2019-02-15T11:56:35.441Z,10.30
2019-02-15T11:59:04.309Z,10.40
2019-02-15T12:01:33.103Z,10.40
2019-02-15T12:04:01.882Z,10.60
2019-02-15T12:06:30.945Z,10.60
2019-02-15T12:08:59.827Z,10.60
2019-02-15T12:11:29.128Z,10.70
2019-02-15T12:13:57.904Z,10.80
2019-02-15T12:16:26.697Z,10.90
2019-02-15T12:18:55.578Z,11.00
2019-02-15T12:21:24.376Z,11.10
2019-02-15T12:23:53.417Z,11.20
2019-02-15T12:26:22.289Z,11.20
2019-02-15T12:28:51.353Z,11.20
2019-02-15T12:31:20.427Z,11.30
2019-02-15T12:33:49.474Z,11.30
2019-02-15T12:36:18.270Z,11.30
2019-02-15T12:38:47.317Z,11.40
2019-02-15T12:41:16.373Z,11.50
2019-02-15T12:43:45.432Z,11.60
2019-02-15T12:46:14.799Z,11.60
2019-02-15T12:48:43.590Z,11.80
2019-02-15T12:51:12.635Z,11.90
2019-02-15T12:53:41.418Z,11.90
2019-02-15T12:56:10.475Z,12.00
2019-02-15T12:58:39.265Z,12.30
2019-02-15T13:01:08.040Z,12.30
2019-02-15T13:03:36.845Z,12.50
2019-02-15T13:06:05.706Z,12.60
2019-02-15T13:08:34.509Z,13.10
2019-02-15T13:11:03.297Z,13.60
2019-02-15T13:13:32.342Z,14.40
2019-02-15T13:16:01.122Z,15.00
2019-02-15T13:18:29.929Z,14.90
2019-02-15T13:20:58.721Z,14.60
2019-02-15T13:23:27.526Z,14.30
2019-02-15T13:25:56.330Z,14.10
2019-02-15T13:28:25.133Z,14.00
2019-02-15T13:30:53.932Z,13.90
2019-02-15T13:33:23.004Z,13.80
2019-02-15T13:35:52.046Z,13.90
2019-02-15T13:38:22.121Z,13.90
2019-02-15T13:40:50.986Z,14.60
2019-02-15T13:43:19.793Z,15.20
2019-02-15T13:45:48.669Z,15.30
2019-02-15T13:48:17.473Z,15.30
2019-02-15T13:50:46.514Z,15.70
2019-02-15T13:53:15.316Z,16.50
2019-02-15T13:55:44.627Z,17.10
2019-02-15T13:58:13.422Z,17.50
2019-02-15T14:00:42.285Z,17.20
2019-02-15T14:03:11.149Z,16.30
2019-02-15T14:05:39.933Z,15.90
2019-02-15T14:08:08.737Z,15.20
2019-02-15T14:10:37.781Z,14.90
2019-02-15T14:13:06.588Z,14.80
2019-02-15T14:15:36.352Z,14.60
2019-02-15T14:18:05.478Z,14.60
2019-02-15T14:20:34.509Z,14.60
2019-02-15T14:23:03.550Z,14.60
2019-02-15T14:25:32.582Z,14.50
2019-02-15T14:28:01.382Z,14.50
2019-02-15T14:30:30.245Z,14.40
2019-02-15T14:32:59.057Z,14.30
2019-02-15T14:35:28.734Z,14.20
2019-02-15T14:37:57.855Z,14.10
2019-02-15T14:40:26.697Z,14.20
2019-02-15T14:42:55.503Z,14.20
2019-02-15T14:45:26.572Z,14.20
2019-02-15T14:47:55.530Z,14.10
2019-02-15T14:50:24.928Z,14.00
2019-02-15T14:52:54.034Z,14.00
2019-02-15T14:55:22.959Z,14.00
2019-02-15T14:57:52.093Z,13.90
2019-02-15T15:00:21.132Z,13.80
2019-02-15T15:02:50.106Z,13.70
2019-02-15T15:05:19.169Z,13.80
2019-02-15T15:07:47.977Z,13.70
2019-02-15T15:10:17.044Z,13.70
2019-02-15T15:12:45.834Z,13.70
2019-02-15T15:15:14.799Z,13.70
2019-02-15T15:17:43.664Z,13.70
2019-02-15T15:20:13.193Z,13.60
2019-02-15T15:22:42.157Z,13.60
2019-02-15T15:25:11.805Z,13.70
2019-02-15T15:27:41.043Z,13.80
2019-02-15T15:30:11.224Z,13.80
2019-02-15T15:32:40.153Z,13.80
2019-02-15T15:35:09.165Z,13.80
2019-02-15T15:37:37.960Z,13.70
2019-02-15T15:40:08.114Z,13.70
2019-02-15T15:42:37.146Z,13.70
2019-02-15T15:45:06.681Z,13.60
2019-02-15T15:47:35.718Z,13.70
2019-02-15T15:50:04.780Z,13.60
2019-02-15T15:52:33.809Z,13.40
2019-02-15T15:55:02.601Z,13.30
2019-02-15T15:57:31.389Z,13.10
2019-02-15T16:00:00.299Z,13.00
2019-02-15T16:02:29.249Z,12.90
2019-02-15T16:04:58.433Z,12.90
2019-02-15T16:07:28.285Z,12.70
2019-02-15T16:09:57.752Z,12.70
2019-02-15T16:12:28.179Z,12.50
2019-02-15T16:14:57.155Z,12.40
2019-02-15T16:17:29.359Z,12.30
2019-02-15T16:19:58.196Z,12.00
2019-02-15T16:22:27.643Z,11.70
2019-02-15T16:24:56.685Z,11.40
2019-02-15T16:27:25.849Z,11.10
2019-02-15T16:29:54.656Z,10.80
2019-02-15T16:32:23.802Z,10.50
2019-02-15T16:34:52.611Z,10.30
2019-02-15T16:37:21.417Z,10.00
2019-02-15T16:39:50.490Z,9.70
2019-02-15T16:42:21.673Z,9.40
2019-02-15T16:44:50.976Z,9.20
2019-02-15T16:47:20.063Z,9.00
2019-02-15T16:49:48.942Z,8.70
2019-02-15T16:52:17.980Z,8.50
2019-02-15T16:54:46.955Z,8.30
2019-02-15T16:57:16.073Z,8.10
2019-02-15T16:59:44.885Z,8.00
2019-02-15T17:02:13.694Z,7.80
2019-02-15T17:04:42.552Z,7.60
2019-02-15T17:07:11.614Z,7.50
2019-02-15T17:09:40.386Z,7.30
2019-02-15T17:12:09.189Z,7.20
2019-02-15T17:14:37.964Z,7.00
2019-02-15T17:17:06.771Z,6.80
2019-02-15T17:19:35.578Z,6.60
2019-02-15T17:22:05.026Z,6.50
2019-02-15T17:24:34.076Z,6.40
2019-02-15T17:27:02.911Z,6.20
2019-02-15T17:29:31.793Z,6.10
2019-02-15T17:32:00.832Z,5.90
2019-02-15T17:34:30.165Z,5.80
2019-02-15T17:36:59.218Z,5.70
2019-02-15T17:39:29.188Z,5.60
2019-02-15T17:41:58.003Z,5.60
2019-02-15T17:44:27.090Z,5.50
2019-02-15T17:46:56.418Z,5.50
2019-02-15T17:49:25.248Z,5.30
2019-02-15T17:51:54.146Z,5.20
2019-02-15T17:54:22.977Z,5.00
2019-02-15T17:56:52.183Z,5.00
2019-02-15T17:59:21.013Z,4.90
2019-02-15T18:01:49.821Z,4.80
2019-02-15T18:04:18.621Z,4.70
2019-02-15T18:06:47.422Z,4.60
2019-02-15T18:09:16.204Z,4.60
2019-02-15T18:11:45.008Z,4.50
2019-02-15T18:14:13.809Z,4.50
2019-02-15T18:16:42.616Z,4.40
2019-02-15T18:19:11.659Z,4.40
2019-02-15T18:21:40.454Z,4.30
2019-02-15T18:24:09.427Z,4.20
2019-02-15T18:26:38.778Z,4.10
2019-02-15T18:29:08.045Z,4.20
2019-02-15T18:31:36.919Z,4.20
2019-02-15T18:34:05.810Z,4.10
2019-02-15T18:36:34.612Z,4.00
2019-02-15T18:39:04.661Z,4.00
2019-02-15T18:41:33.452Z,4.00
2019-02-15T18:44:02.503Z,3.90
2019-02-15T18:46:31.293Z,3.90
2019-02-15T18:49:00.634Z,3.80
2019-02-15T18:51:29.817Z,3.70
2019-02-15T18:53:58.925Z,3.70
2019-02-15T18:56:27.789Z,3.60
2019-02-15T18:58:56.603Z,3.50
2019-02-15T19:01:26.310Z,3.50
2019-02-15T19:03:57.979Z,3.40
2019-02-15T19:06:27.008Z,3.40
2019-02-15T19:08:56.394Z,3.30
2019-02-15T19:11:25.265Z,3.20
2019-02-15T19:13:54.076Z,3.10
2019-02-15T19:16:23.565Z,3.00
2019-02-15T19:18:52.643Z,3.00
2019-02-15T19:21:21.753Z,2.90
2019-02-15T19:23:50.557Z,2.90
2019-02-15T19:26:19.505Z,2.80
2019-02-15T19:28:48.305Z,2.80
2019-02-15T19:31:17.104Z,2.80
2019-02-15T19:33:45.922Z,2.70
2019-02-15T19:36:14.785Z,2.70
2019-02-15T19:38:43.833Z,2.60
2019-02-15T19:41:12.882Z,2.50
2019-02-15T19:43:41.689Z,2.50
2019-02-15T19:46:10.468Z,2.50
2019-02-15T19:48:39.267Z,2.50
2019-02-15T19:51:08.296Z,2.50
2019-02-15T19:53:37.151Z,2.40
2019-02-15T19:56:06.265Z,2.40
2019-02-15T19:58:35.099Z,2.30
2019-02-15T20:01:04.009Z,2.30
2019-02-15T20:03:32.823Z,2.30
2019-02-15T20:06:01.715Z,2.20
2019-02-15T20:08:30.858Z,2.20
2019-02-15T20:10:59.992Z,2.10
2019-02-15T20:13:28.806Z,2.00
2019-02-15T20:15:57.918Z,1.90
2019-02-15T20:18:27.068Z,1.90
2019-02-15T20:20:55.996Z,1.80
2019-02-15T20:23:24.894Z,1.80
2019-02-15T20:25:54.187Z,1.80
2019-02-15T20:28:23.125Z,1.70
2019-02-15T20:30:51.968Z,1.60
2019-02-15T20:33:21.361Z,1.60
2019-02-15T20:35:50.226Z,1.50
2019-02-15T20:38:19.021Z,1.40
2019-02-15T20:40:48.067Z,1.50
2019-02-15T20:43:16.979Z,1.50
2019-02-15T20:45:45.802Z,1.40
2019-02-15T20:48:14.619Z,1.40
2019-02-15T20:50:43.738Z,1.40
2019-02-15T20:53:12.887Z,1.40
2019-02-15T20:55:41.951Z,1.40
2019-02-15T20:58:10.813Z,1.40
2019-02-15T21:00:39.958Z,1.30
2019-02-15T21:03:08.737Z,1.30
2019-02-15T21:05:37.560Z,1.30
2019-02-15T21:08:06.362Z,1.20
2019-02-15T21:10:35.225Z,1.20
2019-02-15T21:13:04.035Z,1.10
2019-02-15T21:15:33.142Z,1.10
2019-02-15T21:18:02.001Z,1.10
2019-02-15T21:20:30.805Z,1.00
2019-02-15T21:22:59.621Z,0.90
2019-02-15T21:25:28.514Z,0.80
2019-02-15T21:27:57.790Z,0.70
2019-02-15T21:30:26.620Z,0.60
2019-02-15T21:32:55.693Z,0.60
2019-02-15T21:35:24.995Z,0.50
2019-02-15T21:37:53.821Z,0.60
2019-02-15T21:40:22.869Z,0.60
2019-02-15T21:42:52.296Z,0.50
2019-02-15T21:45:21.514Z,0.50
2019-02-15T21:47:50.321Z,0.40
2019-02-15T21:50:19.186Z,0.40
2019-02-15T21:52:48.026Z,0.30
2019-02-15T21:55:16.897Z,0.30
2019-02-15T21:57:46.176Z,0.20
2019-02-15T22:00:17.849Z,0.20
2019-02-15T22:02:47.043Z,0.20
2019-02-15T22:05:16.362Z,0.10
2019-02-15T22:07:45.489Z,0.10
2019-02-15T22:10:14.518Z,0.10
2019-02-15T22:12:43.342Z,0.00
2019-02-15T22:15:12.333Z,0.00
2019-02-15T22:17:41.719Z,0.10
2019-02-15T22:20:12.139Z,0.10
2019-02-15T22:22:41.151Z,0.10
2019-02-15T22:25:10.336Z,0.10
2019-02-15T22:27:39.887Z,0.00
2019-02-15T22:30:11.297Z,0.00
2019-02-15T22:32:42.349Z,0.00
2019-02-15T22:35:10.929Z,-0.10
2019-02-15T22:37:39.813Z,-0.20
2019-02-15T22:40:31.490Z,-0.20
2019-02-15T22:43:05.781Z,-0.20
2019-02-15T22:45:34.561Z,-0.20
2019-02-15T22:48:03.697Z,-0.20
2019-02-15T22:50:36.191Z,-0.30
2019-02-15T22:53:03.612Z,-0.30
2019-02-15T22:55:32.435Z,-0.20
2019-02-15T22:58:01.276Z,-0.20
2019-02-15T23:00:48.118Z,-0.20
2019-02-15T23:03:18.758Z,-0.30
2019-02-15T23:05:47.608Z,-0.30
2019-02-15T23:08:16.517Z,-0.20
2019-02-15T23:10:45.441Z,-0.20
2019-02-15T23:13:14.372Z,-0.20
2019-02-15T23:15:43.510Z,-0.30
2019-02-15T23:18:12.413Z,-0.20
2019-02-15T23:20:45.187Z,-0.20
2019-02-15T23:23:31.338Z,-0.30
2019-02-15T23:26:00.245Z,-0.30
2019-02-15T23:28:29.051Z,-0.40
2019-02-15T23:30:57.846Z,-0.50
2019-02-15T23:33:26.641Z,-0.60
2019-02-15T23:35:55.438Z,-0.70
2019-02-15T23:38:24.263Z,-0.70
2019-02-15T23:40:53.132Z,-0.90
2019-02-15T23:43:21.933Z,-0.90
2019-02-15T23:45:50.729Z,-1.00
2019-02-15T23:48:20.032Z,-1.00
2019-02-15T23:50:54.929Z,-1.10
2019-02-15T23:53:19.965Z,-1.20
2019-02-15T23:55:48.755Z,-1.20
2019-02-15T23:58:17.594Z,-1.30
